createdAt,value
2023-05-05T00:03:37.855Z,98333.50
2023-05-05T00:06:08.372Z,98335.91
2023-05-05T00:08:35.416Z,98329.84
2023-05-05T00:11:02.722Z,98332.88
2023-05-05T00:13:30.257Z,98333.00
2023-05-05T00:15:57.662Z,98333.66
2023-05-05T00:18:24.588Z,98331.81
2023-05-05T00:20:51.804Z,98333.13
2023-05-05T00:23:19.986Z,98334.72
2023-05-05T00:25:47.241Z,98342.72
2023-05-05T00:28:15.429Z,98339.81
2023-05-05T00:30:42.634Z,98331.25
2023-05-05T00:33:10.853Z,98337.41
2023-05-05T00:35:39.527Z,98345.25
2023-05-05T00:38:10.929Z,98343.41
2023-05-05T00:40:45.288Z,98342.53
2023-05-05T00:43:17.210Z,98339.91
2023-05-05T00:45:48.619Z,98336.44
2023-05-05T00:48:18.828Z,98340.19
2023-05-05T00:50:50.495Z,98334.53
2023-05-05T00:53:18.747Z,98342.53
2023-05-05T00:55:46.928Z,98333.97
2023-05-05T00:58:15.608Z,98340.19
2023-05-05T01:00:43.340Z,98346.50
2023-05-05T01:03:16.751Z,98338.25
2023-05-05T01:06:06.508Z,98339.69
2023-05-05T01:09:02.765Z,98335.53
2023-05-05T01:11:46.987Z,98339.44
2023-05-05T01:14:21.482Z,98342.13
2023-05-05T01:17:08.372Z,98343.63
2023-05-05T01:20:20.892Z,98343.25
2023-05-05T01:23:09.815Z,98336.16
2023-05-05T01:26:04.721Z,98336.28
2023-05-05T01:28:41.859Z,98340.06
2023-05-05T01:31:47.434Z,98344.41
2023-05-05T01:34:25.430Z,98342.53
2023-05-05T01:36:59.216Z,98343.88
2023-05-05T01:39:30.460Z,98345.56
2023-05-05T01:42:03.191Z,98342.78
2023-05-05T01:44:35.032Z,98345.44
2023-05-05T01:47:09.135Z,98347.28
2023-05-05T01:49:38.623Z,98344.41
2023-05-05T01:52:07.410Z,98346.81
2023-05-05T01:54:40.096Z,98339.41
2023-05-05T01:57:11.431Z,98340.78
2023-05-05T01:59:41.503Z,98342.69
2023-05-05T02:02:16.021Z,98339.91
2023-05-05T02:04:47.023Z,98338.59
2023-05-05T02:07:16.776Z,98338.34
2023-05-05T02:09:46.423Z,98337.03
2023-05-05T02:12:17.491Z,98336.91
2023-05-05T02:14:47.442Z,98328.31
2023-05-05T02:17:17.192Z,98333.94
2023-05-05T02:19:47.979Z,98326.41
2023-05-05T02:22:17.358Z,98329.59
2023-05-05T02:24:45.114Z,98336.28
2023-05-05T02:27:19.752Z,98334.59
2023-05-05T02:29:51.132Z,98326.75
2023-05-05T02:32:24.545Z,98327.47
2023-05-05T02:34:56.557Z,98327.38
2023-05-05T02:37:29.726Z,98320.38
2023-05-05T02:40:05.087Z,98330.53
2023-05-05T02:42:37.949Z,98323.44
2023-05-05T02:45:17.767Z,98323.47
2023-05-05T02:47:48.098Z,98321.56
2023-05-05T02:50:17.347Z,98316.34
2023-05-05T02:52:54.794Z,98314.06
2023-05-05T02:55:24.173Z,98312.97
2023-05-05T02:58:04.281Z,98311.28
2023-05-05T03:00:49.657Z,98309.50
2023-05-05T03:03:31.816Z,98316.25
2023-05-05T03:06:11.390Z,98310.00
2023-05-05T03:09:08.059Z,98307.66
2023-05-05T03:11:50.022Z,98308.88
2023-05-05T03:14:20.061Z,98304.41
2023-05-05T03:16:50.197Z,98306.09
2023-05-05T03:19:19.264Z,98303.69
2023-05-05T03:21:49.705Z,98299.59
2023-05-05T03:24:20.242Z,98295.75
2023-05-05T03:27:02.559Z,98293.09
2023-05-05T03:29:36.833Z,98301.13
2023-05-05T03:32:09.041Z,98298.09
2023-05-05T03:34:38.358Z,98305.88
2023-05-05T03:37:06.622Z,98305.00
2023-05-05T03:39:36.711Z,98307.72
2023-05-05T03:42:06.369Z,98296.97
2023-05-05T03:44:36.692Z,98299.31
2023-05-05T03:47:05.908Z,98301.56
2023-05-05T03:49:36.886Z,98307.44
2023-05-05T03:52:04.896Z,98303.81
2023-05-05T03:54:34.042Z,98303.28
2023-05-05T03:57:04.743Z,98312.31
2023-05-05T04:00:05.287Z,98318.88
2023-05-05T04:03:20.934Z,98314.69
2023-05-05T04:06:21.525Z,98320.47
2023-05-05T04:08:49.312Z,98316.25
2023-05-05T04:11:17.616Z,98317.69
2023-05-05T04:13:45.694Z,98313.41
2023-05-05T04:16:15.982Z,98315.94
2023-05-05T04:18:43.790Z,98312.84
2023-05-05T04:21:11.561Z,98313.63
2023-05-05T04:23:41.765Z,98322.06
2023-05-05T04:26:11.770Z,98316.06
2023-05-05T04:29:31.583Z,98325.56
2023-05-05T04:32:03.663Z,98330.63
2023-05-05T04:34:33.862Z,98325.09
2023-05-05T04:37:17.284Z,98322.06
2023-05-05T04:39:56.880Z,98326.78
2023-05-05T04:42:53.202Z,98332.41
2023-05-05T04:45:22.683Z,98334.31
2023-05-05T04:47:50.308Z,98335.91
2023-05-05T04:50:19.747Z,98334.19
2023-05-05T04:52:48.154Z,98342.28
2023-05-05T04:55:16.110Z,98337.22
2023-05-05T04:57:43.537Z,98332.00
2023-05-05T05:00:11.784Z,98347.69
2023-05-05T05:02:39.809Z,98337.84
2023-05-05T05:05:07.683Z,98348.25
2023-05-05T05:07:36.549Z,98355.38
2023-05-05T05:10:04.671Z,98343.81
2023-05-05T05:12:32.674Z,98340.38
2023-05-05T05:15:01.476Z,98355.84
2023-05-05T05:17:31.052Z,98360.41
2023-05-05T05:20:01.770Z,98360.84
2023-05-05T05:22:31.820Z,98365.88
2023-05-05T05:25:00.020Z,98361.56
2023-05-05T05:27:28.400Z,98364.50
2023-05-05T05:29:56.959Z,98367.72
2023-05-05T05:32:25.060Z,98356.66
2023-05-05T05:34:52.062Z,98360.22
2023-05-05T05:37:19.995Z,98346.91
2023-05-05T05:39:57.007Z,98354.81
2023-05-05T05:42:26.846Z,98362.28
2023-05-05T05:44:56.808Z,98364.53
2023-05-05T05:47:25.207Z,98364.38
2023-05-05T05:49:56.158Z,98356.25
2023-05-05T05:52:23.706Z,98357.47
2023-05-05T05:54:51.278Z,98352.06
2023-05-05T05:57:19.323Z,98357.91
2023-05-05T06:00:01.620Z,98361.91
2023-05-05T06:02:39.330Z,98362.88
2023-05-05T06:05:10.702Z,98367.09
2023-05-05T06:07:39.582Z,98370.25
2023-05-05T06:10:25.180Z,98379.25
2023-05-05T06:12:56.209Z,98376.50
2023-05-05T06:15:23.337Z,98377.13
2023-05-05T06:17:50.103Z,98375.63
2023-05-05T06:20:17.196Z,98376.75
2023-05-05T06:22:45.342Z,98379.56
2023-05-05T06:25:13.071Z,98389.66
2023-05-05T06:27:40.630Z,98375.91
2023-05-05T06:30:16.563Z,98388.41
2023-05-05T06:32:55.278Z,98381.63
2023-05-05T06:35:22.817Z,98376.91
2023-05-05T06:37:49.735Z,98370.19
2023-05-05T06:40:17.159Z,98367.41
2023-05-05T06:42:44.507Z,98371.69
2023-05-05T06:45:18.110Z,98371.69
2023-05-05T06:47:45.046Z,98370.66
2023-05-05T06:50:23.731Z,98359.34
2023-05-05T06:53:00.432Z,98363.72
2023-05-05T06:55:28.941Z,98358.72
2023-05-05T06:57:59.333Z,98365.16
2023-05-05T07:00:26.481Z,98363.47
2023-05-05T07:02:56.631Z,98366.34
2023-05-05T07:05:24.120Z,98360.63
2023-05-05T07:07:56.027Z,98354.31
2023-05-05T07:10:24.068Z,98371.03
2023-05-05T07:12:52.606Z,98355.31
2023-05-05T07:15:27.327Z,98355.81
2023-05-05T07:17:57.085Z,98352.56
2023-05-05T07:20:24.402Z,98362.44
2023-05-05T07:22:51.822Z,98360.63
2023-05-05T07:25:19.188Z,98367.13
2023-05-05T07:27:46.312Z,98356.44
2023-05-05T07:30:18.076Z,98358.59
2023-05-05T07:32:46.075Z,98351.03
2023-05-05T07:35:13.187Z,98342.91
2023-05-05T07:37:40.577Z,98342.13
2023-05-05T07:40:08.157Z,98329.97
2023-05-05T07:42:36.612Z,98326.56
2023-05-05T07:45:06.006Z,98330.53
2023-05-05T07:47:33.167Z,98326.03
2023-05-05T07:50:01.721Z,98333.75
2023-05-05T07:52:44.101Z,98332.16
2023-05-05T07:55:16.516Z,98331.09
2023-05-05T07:57:44.019Z,98333.69
2023-05-05T08:00:13.732Z,98337.66
2023-05-05T08:02:44.440Z,98338.03
2023-05-05T08:05:14.210Z,98339.53
2023-05-05T08:07:46.384Z,98332.06
2023-05-05T08:10:14.664Z,98338.88
2023-05-05T08:12:42.120Z,98344.28
2023-05-05T08:15:09.867Z,98334.38
2023-05-05T08:17:46.361Z,98337.81
2023-05-05T08:20:18.703Z,98340.31
2023-05-05T08:22:47.768Z,98331.91
2023-05-05T08:25:18.618Z,98331.31
2023-05-05T08:27:49.285Z,98341.47
2023-05-05T08:30:27.067Z,98334.81
2023-05-05T08:32:58.784Z,98335.47
2023-05-05T08:35:26.315Z,98316.78
2023-05-05T08:37:56.036Z,98331.59
2023-05-05T08:40:39.583Z,98325.25
2023-05-05T08:43:07.117Z,98322.97
2023-05-05T08:45:38.937Z,98320.72
2023-05-05T08:48:18.954Z,98334.03
2023-05-05T08:51:00.780Z,98332.81
2023-05-05T08:53:55.846Z,98332.97
2023-05-05T08:56:33.621Z,98329.91
2023-05-05T08:59:04.732Z,98330.72
2023-05-05T09:01:35.736Z,98335.75
2023-05-05T09:04:08.278Z,98320.31
2023-05-05T09:06:37.380Z,98327.34
2023-05-05T09:09:05.265Z,98320.75
2023-05-05T09:11:37.534Z,98322.53
2023-05-05T09:14:05.205Z,98331.56
2023-05-05T09:16:32.516Z,98322.38
2023-05-05T09:19:04.525Z,98326.31
2023-05-05T09:21:35.302Z,98321.00
2023-05-05T09:24:10.870Z,98312.06
2023-05-05T09:26:45.713Z,98309.34
2023-05-05T09:29:24.262Z,98303.97
2023-05-05T09:32:08.723Z,98299.94
2023-05-05T09:34:37.243Z,98294.44
2023-05-05T09:37:06.118Z,98298.47
2023-05-05T09:39:33.596Z,98304.03
2023-05-05T09:42:03.584Z,98300.97
2023-05-05T09:44:36.607Z,98305.06
2023-05-05T09:47:09.336Z,98314.66
2023-05-05T09:49:39.761Z,98298.16
2023-05-05T09:52:17.825Z,98301.19
2023-05-05T09:54:45.533Z,98299.66
2023-05-05T09:57:27.621Z,98298.03
2023-05-05T09:59:57.977Z,98282.75
2023-05-05T10:02:33.608Z,98291.69
2023-05-05T10:05:19.212Z,98289.94
2023-05-05T10:07:47.932Z,98284.16
2023-05-05T10:10:17.849Z,98289.81
2023-05-05T10:12:50.197Z,98299.63
2023-05-05T10:15:18.116Z,98288.28
2023-05-05T10:18:02.455Z,98283.06
2023-05-05T10:20:36.487Z,98295.06
2023-05-05T10:23:08.333Z,98279.56
2023-05-05T10:25:42.680Z,98277.34
2023-05-05T10:28:23.276Z,98276.41
2023-05-05T10:30:55.828Z,98282.59
2023-05-05T10:33:35.934Z,98282.16
2023-05-05T10:36:06.616Z,98266.66
2023-05-05T10:38:36.341Z,98264.13
2023-05-05T10:41:04.597Z,98261.03
2023-05-05T10:43:32.188Z,98252.53
2023-05-05T10:46:00.836Z,98258.59
2023-05-05T10:48:56.970Z,98245.97
2023-05-05T10:51:42.556Z,98256.38
2023-05-05T10:54:29.421Z,98243.44
2023-05-05T10:57:05.327Z,98257.03
2023-05-05T10:59:38.928Z,98249.25
2023-05-05T11:02:20.096Z,98240.66
2023-05-05T11:05:15.338Z,98244.25
2023-05-05T11:07:50.028Z,98235.34
2023-05-05T11:10:21.194Z,98235.41
2023-05-05T11:12:55.202Z,98234.94
2023-05-05T11:15:22.444Z,98234.47
2023-05-05T11:17:50.673Z,98240.44
2023-05-05T11:20:45.416Z,98223.47
2023-05-05T11:23:13.419Z,98221.91
2023-05-05T11:25:45.564Z,98221.84
2023-05-05T11:28:17.548Z,98218.09
2023-05-05T11:30:53.708Z,98220.28
2023-05-05T11:33:37.875Z,98219.00
2023-05-05T11:36:11.877Z,98214.53
2023-05-05T11:39:18.474Z,98217.16
2023-05-05T11:42:06.586Z,98214.78
2023-05-05T11:44:37.911Z,98208.19
2023-05-05T11:47:09.106Z,98210.88
2023-05-05T11:49:38.443Z,98215.56
2023-05-05T11:52:13.839Z,98204.44
2023-05-05T11:54:49.257Z,98199.75
2023-05-05T11:57:21.435Z,98206.34
2023-05-05T12:00:06.653Z,98203.00
2023-05-05T12:02:34.721Z,98196.66
2023-05-05T12:05:02.873Z,98204.75
2023-05-05T12:07:32.200Z,98199.09
2023-05-05T12:09:59.732Z,98201.03
2023-05-05T12:12:41.155Z,98193.84
2023-05-05T12:15:09.732Z,98189.66
2023-05-05T12:17:43.972Z,98181.47
2023-05-05T12:20:13.613Z,98193.25
2023-05-05T12:22:41.466Z,98189.50
2023-05-05T12:25:09.051Z,98190.63
2023-05-05T12:27:37.214Z,98189.22
2023-05-05T12:30:13.732Z,98189.44
2023-05-05T12:32:41.150Z,98183.44
2023-05-05T12:35:09.815Z,98186.31
2023-05-05T12:37:38.003Z,98184.69
2023-05-05T12:40:06.612Z,98182.59
2023-05-05T12:42:41.083Z,98180.53
2023-05-05T12:45:17.873Z,98177.69
2023-05-05T12:47:45.505Z,98169.78
2023-05-05T12:50:12.652Z,98170.09
2023-05-05T12:52:46.154Z,98171.81
2023-05-05T12:55:13.516Z,98167.38
2023-05-05T12:58:04.693Z,98166.06
2023-05-05T13:00:32.594Z,98155.22
2023-05-05T13:03:00.028Z,98153.44
2023-05-05T13:05:41.772Z,98152.81
2023-05-05T13:08:09.714Z,98152.69
2023-05-05T13:10:40.448Z,98141.06
2023-05-05T13:13:10.861Z,98144.53
2023-05-05T13:15:39.958Z,98149.75
2023-05-05T13:18:09.108Z,98144.38
2023-05-05T13:20:38.107Z,98136.22
2023-05-05T13:23:13.029Z,98122.94
2023-05-05T13:25:41.612Z,98132.28
2023-05-05T13:28:10.250Z,98130.69
2023-05-05T13:30:40.690Z,98132.28
2023-05-05T13:33:09.400Z,98118.00
2023-05-05T13:35:39.709Z,98117.16
2023-05-05T13:38:07.309Z,98121.66
2023-05-05T13:40:37.816Z,98121.00
2023-05-05T13:43:06.083Z,98110.16
2023-05-05T13:45:34.086Z,98107.69
2023-05-05T13:48:04.679Z,98101.84
2023-05-05T13:50:32.938Z,98083.78
2023-05-05T13:53:03.995Z,98083.50
2023-05-05T13:55:35.690Z,98092.88
2023-05-05T13:58:06.783Z,98086.59
2023-05-05T14:00:36.840Z,98098.47
2023-05-05T14:03:06.588Z,98074.81
2023-05-05T14:05:42.784Z,98090.47
2023-05-05T14:08:13.737Z,98092.75
2023-05-05T14:10:42.376Z,98076.75
2023-05-05T14:13:11.357Z,98082.47
2023-05-05T14:15:42.742Z,98075.59
2023-05-05T14:18:19.801Z,98076.75
2023-05-05T14:20:50.837Z,98073.72
2023-05-05T14:23:20.086Z,98060.19
2023-05-05T14:25:49.863Z,98061.09
2023-05-05T14:28:21.212Z,98058.53
2023-05-05T14:30:50.307Z,98060.19
2023-05-05T14:33:19.659Z,98060.66
2023-05-05T14:35:48.509Z,98055.50
2023-05-05T14:38:19.652Z,98047.72
2023-05-05T14:43:35.384Z,98061.13
2023-05-05T14:46:14.569Z,98055.63
2023-05-05T14:48:49.319Z,98054.09
2023-05-05T14:51:18.509Z,98050.00
2023-05-05T14:53:46.789Z,98058.84
2023-05-05T14:56:17.786Z,98054.34
2023-05-05T14:58:50.686Z,98052.16
2023-05-05T15:01:21.016Z,98064.66
2023-05-05T15:03:48.789Z,98046.63
2023-05-05T15:06:17.644Z,98046.38
2023-05-05T15:08:48.076Z,98057.28
2023-05-05T15:11:23.425Z,98049.38
2023-05-05T15:13:51.945Z,98048.22
2023-05-05T15:16:31.379Z,98045.66
2023-05-05T15:19:22.449Z,98044.50
2023-05-05T15:21:54.717Z,98049.72
2023-05-05T15:24:26.896Z,98045.03
2023-05-05T15:26:56.097Z,98049.47
2023-05-05T15:29:25.700Z,98042.34
2023-05-05T15:31:53.877Z,98034.25
2023-05-05T15:34:21.852Z,98042.25
2023-05-05T15:36:51.869Z,98040.13
2023-05-05T15:39:22.938Z,98040.97
2023-05-05T15:42:06.777Z,98039.75
2023-05-05T15:44:38.911Z,98031.97
2023-05-05T15:47:12.569Z,98032.25
2023-05-05T15:49:44.693Z,98023.53
2023-05-05T15:52:15.663Z,98013.81
2023-05-05T15:54:45.539Z,98012.69
2023-05-05T15:57:20.865Z,98017.50
2023-05-05T15:59:55.756Z,98011.03
2023-05-05T16:02:27.569Z,98019.72
2023-05-05T16:05:06.310Z,98001.34
2023-05-05T16:07:37.928Z,98012.50
2023-05-05T16:10:12.276Z,98003.63
2023-05-05T16:12:41.946Z,98007.19
2023-05-05T16:15:12.532Z,98004.81
2023-05-05T16:17:41.189Z,98004.13
2023-05-05T16:20:09.742Z,98012.09
2023-05-05T16:22:38.657Z,97998.06
2023-05-05T16:25:07.797Z,97999.00
2023-05-05T16:27:37.677Z,98003.97
2023-05-05T16:30:06.531Z,98003.13
2023-05-05T16:32:42.921Z,97988.09
2023-05-05T16:35:13.162Z,97982.41
2023-05-05T16:37:49.731Z,97999.06
2023-05-05T16:40:19.631Z,97991.53
2023-05-05T16:42:47.571Z,97997.19
2023-05-05T16:45:17.944Z,97994.88
2023-05-05T16:47:57.922Z,97997.38
2023-05-05T16:50:26.922Z,97981.06
2023-05-05T16:52:54.701Z,97990.09
2023-05-05T16:55:26.308Z,97977.59
2023-05-05T16:57:54.601Z,97979.13
2023-05-05T17:00:27.641Z,97978.44
2023-05-05T17:02:57.736Z,97965.56
2023-05-05T17:05:26.439Z,97966.78
2023-05-05T17:07:54.686Z,97971.78
2023-05-05T17:10:26.308Z,97961.06
2023-05-05T17:12:56.284Z,97957.13
2023-05-05T17:15:24.942Z,97957.13
2023-05-05T17:17:54.183Z,97954.53
2023-05-05T17:20:24.196Z,97962.16
2023-05-05T17:23:01.661Z,97947.59
2023-05-05T17:25:30.895Z,97965.97
2023-05-05T17:28:11.325Z,97962.19
2023-05-05T17:30:39.930Z,97963.22
2023-05-05T17:33:08.908Z,97960.88
2023-05-05T17:35:39.207Z,97956.31
2023-05-05T17:38:07.908Z,97959.97
2023-05-05T17:40:39.760Z,97958.88
2023-05-05T17:43:10.156Z,97969.03
2023-05-05T17:45:38.970Z,97959.44
2023-05-05T17:48:07.653Z,97940.31
2023-05-05T17:50:37.346Z,97971.59
2023-05-05T17:53:06.148Z,97964.63
2023-05-05T17:55:36.836Z,97964.25
2023-05-05T17:58:04.554Z,97969.19
2023-05-05T18:00:33.127Z,97961.16
2023-05-05T18:03:06.265Z,97969.78
2023-05-05T18:05:39.347Z,97965.41
2023-05-05T18:08:09.709Z,97964.59
2023-05-05T18:10:50.255Z,97955.94
2023-05-05T18:13:22.259Z,97960.56
2023-05-05T18:15:53.768Z,97974.19
2023-05-05T18:18:27.189Z,97974.00
2023-05-05T18:20:58.604Z,97967.16
2023-05-05T18:23:27.920Z,97974.28
2023-05-05T18:25:59.669Z,97977.22
2023-05-05T18:28:30.517Z,97979.88
2023-05-05T18:31:00.239Z,97985.88
2023-05-05T18:33:47.558Z,97981.84
2023-05-05T18:36:21.441Z,97983.31
2023-05-05T18:38:52.634Z,97985.56
2023-05-05T18:41:29.562Z,97969.75
2023-05-05T18:43:58.610Z,97970.50
2023-05-05T18:46:28.776Z,97986.34
2023-05-05T18:48:59.360Z,97989.84
2023-05-05T18:51:28.901Z,97992.16
2023-05-05T18:54:01.705Z,97984.88
2023-05-05T18:56:30.888Z,97992.50
2023-05-05T18:59:01.079Z,97985.31
2023-05-05T19:01:29.923Z,97988.09
2023-05-05T19:04:02.175Z,97977.03
2023-05-05T19:06:32.201Z,97974.56
2023-05-05T19:09:01.744Z,97992.09
2023-05-05T19:11:30.169Z,97993.91
2023-05-05T19:13:59.857Z,97986.97
2023-05-05T19:16:32.684Z,97983.59
2023-05-05T19:19:01.722Z,97984.63
2023-05-05T19:21:33.804Z,97987.44
2023-05-05T19:24:13.275Z,97971.91
2023-05-05T19:26:47.492Z,97979.19
2023-05-05T19:29:19.062Z,97966.16
2023-05-05T19:31:47.987Z,97971.09
2023-05-05T19:34:26.872Z,97966.06
2023-05-05T19:37:00.388Z,97964.03
2023-05-05T19:39:28.970Z,97959.19
2023-05-05T19:42:03.600Z,97944.78
2023-05-05T19:44:31.888Z,97941.97
2023-05-05T19:47:00.490Z,97947.19
2023-05-05T19:49:29.437Z,97949.97
2023-05-05T19:51:59.158Z,97938.50
2023-05-05T19:54:27.450Z,97934.34
2023-05-05T19:57:02.796Z,97938.91
2023-05-05T19:59:31.862Z,97928.31
2023-05-05T20:02:00.970Z,97934.31
2023-05-05T20:04:28.654Z,97927.50
2023-05-05T20:07:00.704Z,97917.03
2023-05-05T20:09:30.985Z,97922.56
2023-05-05T20:12:07.500Z,97907.28
2023-05-05T20:14:36.329Z,97907.03
2023-05-05T20:17:06.530Z,97894.56
2023-05-05T20:19:34.380Z,97891.81
2023-05-05T20:22:05.304Z,97897.97
2023-05-05T20:24:34.000Z,97891.50
2023-05-05T20:27:07.560Z,97902.72
2023-05-05T20:29:38.169Z,97905.16
2023-05-05T20:32:08.391Z,97909.94
2023-05-05T20:34:36.795Z,97918.97
2023-05-05T20:37:04.755Z,97918.91
2023-05-05T20:39:32.025Z,97900.09
2023-05-05T20:42:01.942Z,97920.31
2023-05-05T20:44:30.176Z,97924.78
2023-05-05T20:46:58.443Z,97918.53
2023-05-05T20:49:26.382Z,97918.63
2023-05-05T20:51:54.966Z,97928.13
2023-05-05T20:54:26.253Z,97931.28
2023-05-05T20:56:58.765Z,97925.13
2023-05-05T20:59:29.615Z,97930.56
2023-05-05T21:01:58.740Z,97933.50
2023-05-05T21:04:27.504Z,97933.75
2023-05-05T21:06:54.963Z,97934.03
2023-05-05T21:09:24.626Z,97934.69
2023-05-05T21:11:52.072Z,97928.66
2023-05-05T21:14:19.352Z,97935.06
2023-05-05T21:16:46.635Z,97927.00
2023-05-05T21:19:13.845Z,97932.63
2023-05-05T21:21:41.206Z,97929.41
2023-05-05T21:24:09.049Z,97918.94
2023-05-05T21:26:40.915Z,97932.34
2023-05-05T21:29:09.340Z,97922.88
2023-05-05T21:31:38.586Z,97923.25
2023-05-05T21:34:06.055Z,97918.50
2023-05-05T21:36:34.189Z,97912.41
2023-05-05T21:39:06.964Z,97920.44
2023-05-05T21:41:36.812Z,97913.66
2023-05-05T21:44:06.627Z,97918.19
2023-05-05T21:46:34.483Z,97914.22
2023-05-05T21:49:15.368Z,97924.75
2023-05-05T21:51:45.910Z,97910.97
2023-05-05T21:54:13.555Z,97909.84
2023-05-05T21:56:40.835Z,97908.19
2023-05-05T21:59:09.077Z,97899.06
2023-05-05T22:01:37.980Z,97894.59
2023-05-05T22:04:05.637Z,97897.22
2023-05-05T22:06:39.428Z,97898.03
2023-05-05T22:09:07.792Z,97887.50
2023-05-05T22:11:37.531Z,97878.72
2023-05-05T22:14:07.032Z,97869.88
2023-05-05T22:16:34.330Z,97868.94
2023-05-05T22:19:02.033Z,97870.25
2023-05-05T22:21:29.379Z,97856.59
2023-05-05T22:23:58.034Z,97857.25
2023-05-05T22:26:26.040Z,97858.00
2023-05-05T22:28:53.676Z,97866.72
2023-05-05T22:31:21.492Z,97872.00
2023-05-05T22:33:48.745Z,97868.31
2023-05-05T22:36:17.747Z,97858.84
2023-05-05T22:38:45.163Z,97867.09
2023-05-05T22:41:12.658Z,97874.78
2023-05-05T22:43:40.536Z,97861.72
2023-05-05T22:46:07.757Z,97866.91
2023-05-05T22:48:35.029Z,97860.97
2023-05-05T22:51:03.770Z,97865.47
2023-05-05T22:53:30.779Z,97867.59
2023-05-05T22:55:59.639Z,97858.97
2023-05-05T22:58:29.759Z,97869.31
2023-05-05T23:00:57.988Z,97862.44
2023-05-05T23:03:25.749Z,97866.06
2023-05-05T23:05:52.926Z,97868.13
2023-05-05T23:08:20.896Z,97866.00
2023-05-05T23:10:48.185Z,97863.28
2023-05-05T23:13:15.205Z,97868.25
2023-05-05T23:15:43.957Z,97865.38
2023-05-05T23:18:11.557Z,97861.28
2023-05-05T23:20:39.309Z,97866.28
2023-05-05T23:23:07.037Z,97850.22
2023-05-05T23:25:34.486Z,97858.50
2023-05-05T23:28:02.309Z,97854.34
2023-05-05T23:30:29.796Z,97857.63
2023-05-05T23:32:58.313Z,97850.41
2023-05-05T23:35:26.426Z,97845.03
2023-05-05T23:37:53.882Z,97842.81
2023-05-05T23:40:21.518Z,97840.22
2023-05-05T23:42:49.419Z,97836.72
2023-05-05T23:45:19.480Z,97843.78
2023-05-05T23:47:47.217Z,97837.63
2023-05-05T23:50:14.505Z,97840.72
2023-05-05T23:52:42.372Z,97839.28
2023-05-05T23:55:11.036Z,97845.78
2023-05-05T23:57:39.375Z,97856.28
